createdAt,value
2019-04-01T00:01:02.729Z,89.47
2019-04-01T00:03:33.517Z,88.64
2019-04-01T00:06:04.471Z,89.33
2019-04-01T00:08:35.339Z,89.40
2019-04-01T00:11:06.239Z,88.95
2019-04-01T00:13:37.086Z,88.51
2019-04-01T00:16:09.555Z,88.36
2019-04-01T00:18:40.420Z,88.59
2019-04-01T00:21:11.269Z,88.85
2019-04-01T00:23:42.165Z,88.76
2019-04-01T00:26:13.085Z,88.77
2019-04-01T00:28:44.077Z,89.27
2019-04-01T00:31:14.939Z,89.07
2019-04-01T00:33:46.083Z,89.07
2019-04-01T00:36:16.935Z,89.10
2019-04-01T00:38:47.805Z,89.54
2019-04-01T00:41:18.727Z,89.66
2019-04-01T00:43:57.460Z,89.56
2019-04-01T00:46:32.253Z,90.04
2019-04-01T00:49:03.216Z,89.91
2019-04-01T00:51:34.290Z,90.06
2019-04-01T00:54:05.426Z,89.95
2019-04-01T00:56:36.289Z,89.81
2019-04-01T00:59:07.293Z,90.57
2019-04-01T01:01:38.212Z,89.95
2019-04-01T01:04:09.169Z,90.58
2019-04-01T01:06:40.113Z,90.06
2019-04-01T01:09:11.059Z,90.09
2019-04-01T01:11:43.715Z,89.70
2019-04-01T01:14:16.116Z,90.28
2019-04-01T01:16:47.057Z,90.12
2019-04-01T01:19:18.225Z,90.18
2019-04-01T01:21:49.109Z,90.95
2019-04-01T01:24:21.694Z,90.66
2019-04-01T01:26:52.611Z,90.66
2019-04-01T01:29:27.940Z,91.01
2019-04-01T01:31:58.989Z,90.77
2019-04-01T01:34:29.875Z,90.80
2019-04-01T01:37:00.933Z,90.95
2019-04-01T01:39:31.860Z,90.85
2019-04-01T01:42:02.833Z,90.85
2019-04-01T01:44:33.794Z,91.01
2019-04-01T01:47:08.872Z,91.35
2019-04-01T01:49:39.864Z,90.97
2019-04-01T01:52:10.884Z,90.83
2019-04-01T01:54:41.844Z,91.22
2019-04-01T01:57:14.516Z,91.84
2019-04-01T01:59:45.433Z,91.32
2019-04-01T02:02:16.438Z,91.79
2019-04-01T02:04:47.424Z,92.13
2019-04-01T02:07:18.354Z,92.05
2019-04-01T02:09:49.396Z,92.09
2019-04-01T02:12:20.362Z,92.10
2019-04-01T02:14:54.270Z,92.16
2019-04-01T02:17:28.662Z,91.79
2019-04-01T02:20:03.811Z,92.50
2019-04-01T02:22:34.732Z,92.57
2019-04-01T02:25:06.144Z,92.76
2019-04-01T02:27:37.280Z,92.63
2019-04-01T02:30:08.486Z,92.96
2019-04-01T02:32:39.333Z,93.64
2019-04-01T02:35:10.382Z,93.74
2019-04-01T02:37:41.352Z,93.58
2019-04-01T02:40:12.858Z,93.46
2019-04-01T02:42:43.898Z,93.83
2019-04-01T02:45:17.814Z,93.50
2019-04-01T02:47:48.675Z,93.54
2019-04-01T02:50:19.683Z,93.97
2019-04-01T02:52:54.711Z,93.70
2019-04-01T02:55:25.595Z,93.56
2019-04-01T02:57:56.440Z,93.54
2019-04-01T03:00:27.418Z,93.60
2019-04-01T03:02:58.489Z,93.44
2019-04-01T03:05:29.381Z,93.79
2019-04-01T03:08:00.387Z,93.30
2019-04-01T03:10:31.298Z,93.24
2019-04-01T03:13:02.259Z,93.19
2019-04-01T03:15:33.287Z,93.69
2019-04-01T03:18:04.257Z,93.60
2019-04-01T03:20:35.325Z,93.45
2019-04-01T03:23:06.260Z,94.02
2019-04-01T03:25:37.149Z,94.12
2019-04-01T03:28:09.258Z,93.96
2019-04-01T03:30:42.919Z,93.64
2019-04-01T03:33:12.981Z,93.97
2019-04-01T03:35:43.958Z,93.90
2019-04-01T03:38:16.254Z,93.95
2019-04-01T03:40:47.153Z,94.35
2019-04-01T03:43:32.395Z,93.88
2019-04-01T03:46:12.699Z,94.12
2019-04-01T03:48:46.603Z,94.38
2019-04-01T03:51:17.573Z,94.26
2019-04-01T03:53:48.485Z,94.13
2019-04-01T03:56:19.534Z,94.27
2019-04-01T03:58:53.697Z,95.00
2019-04-01T04:01:24.706Z,95.83
2019-04-01T04:03:55.860Z,95.72
2019-04-01T04:06:26.875Z,95.62
2019-04-01T04:09:01.559Z,95.03
2019-04-01T04:11:30.438Z,94.85
2019-04-01T04:14:01.454Z,95.25
2019-04-01T04:16:32.551Z,95.14
2019-04-01T04:19:03.681Z,95.04
2019-04-01T04:21:35.575Z,95.26
2019-04-01T04:24:06.508Z,95.54
2019-04-01T04:26:38.490Z,95.46
2019-04-01T04:29:09.421Z,95.20
2019-04-01T04:31:40.282Z,94.98
2019-04-01T04:34:12.768Z,95.02
2019-04-01T04:36:43.713Z,94.99
2019-04-01T04:39:17.393Z,94.71
2019-04-01T04:41:48.327Z,94.48
2019-04-01T04:44:19.473Z,94.51
2019-04-01T04:46:50.419Z,94.59
2019-04-01T04:49:21.777Z,94.36
2019-04-01T04:51:52.776Z,93.63
2019-04-01T04:54:23.773Z,93.30
2019-04-01T04:56:56.196Z,92.75
2019-04-01T04:59:27.473Z,92.75
2019-04-01T05:02:00.011Z,92.72
2019-04-01T05:04:31.103Z,92.50
2019-04-01T05:07:02.042Z,92.56
2019-04-01T05:09:34.972Z,92.56
2019-04-01T05:12:06.005Z,92.24
2019-04-01T05:14:36.968Z,92.33
2019-04-01T05:17:08.011Z,92.58
2019-04-01T05:19:39.117Z,92.08
2019-04-01T05:22:10.695Z,92.07
2019-04-01T05:24:42.381Z,91.92
2019-04-01T05:27:15.264Z,91.65
2019-04-01T05:29:47.446Z,91.15
2019-04-01T05:32:23.174Z,90.77
2019-04-01T05:34:58.013Z,90.54
2019-04-01T05:37:29.014Z,90.28
2019-04-01T05:40:00.031Z,89.88
2019-04-01T05:42:31.072Z,89.51
2019-04-01T05:45:01.952Z,89.05
2019-04-01T05:47:37.169Z,88.72
2019-04-01T05:50:08.154Z,88.35
2019-04-01T05:52:39.148Z,88.00
2019-04-01T05:55:10.141Z,87.34
2019-04-01T05:57:41.400Z,87.26
2019-04-01T06:00:15.256Z,86.64
2019-04-01T06:02:47.061Z,86.49
2019-04-01T06:05:17.989Z,86.08
2019-04-01T06:07:48.902Z,85.69
2019-04-01T06:10:19.853Z,85.31
2019-04-01T06:12:50.792Z,84.42
2019-04-01T06:15:21.788Z,83.48
2019-04-01T06:17:52.786Z,82.62
2019-04-01T06:20:23.703Z,81.46
2019-04-01T06:22:54.546Z,80.87
2019-04-01T06:25:25.525Z,80.03
2019-04-01T06:27:56.454Z,79.42
2019-04-01T06:30:29.090Z,77.97
2019-04-01T06:33:00.180Z,77.66
2019-04-01T06:35:31.130Z,77.03
2019-04-01T06:38:02.065Z,76.71
2019-04-01T06:40:33.503Z,76.89
2019-04-01T06:43:04.467Z,76.63
2019-04-01T06:45:35.627Z,76.67
2019-04-01T06:48:06.597Z,76.30
2019-04-01T06:50:37.558Z,74.61
2019-04-01T06:53:08.543Z,72.98
2019-04-01T06:55:39.516Z,71.23
2019-04-01T06:58:12.115Z,70.05
2019-04-01T07:00:43.352Z,69.88
2019-04-01T07:03:14.417Z,69.40
2019-04-01T07:05:45.436Z,68.54
2019-04-01T07:08:16.396Z,68.44
2019-04-01T07:10:47.904Z,68.01
2019-04-01T07:13:19.065Z,67.68
2019-04-01T07:15:50.007Z,66.65
2019-04-01T07:18:20.850Z,65.70
2019-04-01T07:20:51.919Z,65.78
2019-04-01T07:23:22.897Z,65.24
2019-04-01T07:25:53.887Z,64.84
2019-04-01T07:28:24.793Z,63.86
2019-04-01T07:30:55.736Z,63.68
2019-04-01T07:33:26.669Z,62.71
2019-04-01T07:35:57.697Z,61.65
2019-04-01T07:38:28.607Z,60.61
2019-04-01T07:40:59.918Z,58.79
2019-04-01T07:43:30.933Z,59.44
2019-04-01T07:46:01.863Z,59.02
2019-04-01T07:48:32.746Z,58.28
2019-04-01T07:51:06.895Z,57.45
2019-04-01T07:53:36.248Z,56.96
2019-04-01T07:56:07.195Z,57.26
2019-04-01T07:58:38.273Z,57.25
2019-04-01T08:01:09.146Z,55.43
2019-04-01T08:03:41.942Z,54.77
2019-04-01T08:06:13.275Z,55.81
2019-04-01T08:08:46.270Z,54.91
2019-04-01T08:11:16.765Z,53.53
2019-04-01T08:13:47.676Z,53.21
2019-04-01T08:16:18.699Z,52.36
2019-04-01T08:18:49.647Z,52.61
2019-04-01T08:21:20.779Z,51.64
2019-04-01T08:23:51.800Z,51.28
2019-04-01T08:26:22.639Z,50.46
2019-04-01T08:28:53.528Z,50.50
2019-04-01T08:31:24.369Z,50.03
2019-04-01T08:33:55.335Z,49.92
2019-04-01T08:36:26.357Z,48.83
2019-04-01T08:38:57.365Z,48.51
2019-04-01T08:41:28.255Z,46.94
2019-04-01T08:44:07.753Z,46.96
2019-04-01T08:46:41.349Z,46.08
2019-04-01T08:49:20.736Z,46.54
2019-04-01T08:51:56.203Z,45.86
2019-04-01T08:54:28.659Z,45.70
2019-04-01T08:57:13.671Z,45.79
2019-04-01T09:00:15.981Z,44.51
2019-04-01T09:03:23.295Z,44.60
2019-04-01T09:05:50.827Z,43.98
2019-04-01T09:08:33.965Z,42.90
2019-04-01T09:11:28.279Z,42.88
2019-04-01T09:14:10.713Z,42.49
2019-04-01T09:16:50.934Z,42.14
2019-04-01T09:19:31.002Z,41.70
2019-04-01T09:22:13.319Z,42.21
2019-04-01T09:25:04.221Z,42.01
2019-04-01T09:27:42.260Z,40.05
2019-04-01T09:30:18.655Z,39.55
2019-04-01T09:32:57.633Z,39.50
2019-04-01T09:35:45.756Z,40.16
2019-04-01T09:38:34.484Z,39.50
2019-04-01T09:41:41.149Z,37.86
2019-04-01T09:44:36.157Z,38.26
2019-04-01T09:47:32.173Z,38.23
2019-04-01T09:50:03.079Z,37.49
2019-04-01T09:52:41.447Z,36.98
2019-04-01T09:55:18.539Z,36.98
2019-04-01T09:57:55.421Z,37.41
2019-04-01T10:00:27.768Z,37.19
2019-04-01T10:03:14.847Z,37.12
2019-04-01T10:07:02.353Z,35.58
2019-04-01T10:12:02.753Z,34.92
2019-04-01T10:16:51.765Z,34.92
2019-04-01T10:18:34.718Z,34.43
2019-04-01T10:21:09.721Z,33.76
2019-04-01T10:23:40.782Z,33.41
2019-04-01T10:26:17.330Z,34.39
2019-04-01T10:28:49.902Z,35.18
2019-04-01T10:31:20.901Z,34.43
2019-04-01T10:33:54.816Z,33.36
2019-04-01T10:36:25.688Z,34.14
2019-04-01T10:38:58.165Z,32.76
2019-04-01T10:41:29.003Z,32.48
2019-04-01T10:44:04.712Z,32.46
2019-04-01T10:46:36.427Z,32.42
2019-04-01T10:49:10.046Z,32.54
2019-04-01T10:51:41.159Z,32.30
2019-04-01T10:57:58.921Z,31.16
2019-04-01T11:00:52.483Z,32.54
2019-04-01T11:03:34.968Z,32.72
2019-04-01T11:09:19.184Z,30.79
2019-04-01T11:21:42.790Z,32.64
2019-04-01T11:24:29.358Z,31.47
2019-04-01T11:27:08.902Z,30.48
2019-04-01T11:30:13.412Z,30.55
2019-04-01T11:32:42.818Z,30.54
2019-04-01T11:35:27.027Z,30.16
2019-04-01T11:41:08.053Z,31.45
2019-04-01T11:46:39.250Z,30.28
2019-04-01T11:49:11.827Z,29.32
2019-04-01T11:51:44.922Z,28.94
2019-04-01T11:54:18.141Z,29.22
2019-04-01T11:56:49.341Z,30.16
2019-04-01T11:59:20.481Z,30.69
2019-04-01T12:01:51.403Z,30.05
2019-04-01T12:04:22.251Z,30.22
2019-04-01T12:06:53.213Z,30.44
2019-04-01T12:09:24.312Z,30.73
2019-04-01T12:11:55.687Z,29.21
2019-04-01T12:14:28.942Z,29.65
2019-04-01T12:17:00.121Z,31.46
2019-04-01T12:19:35.219Z,31.69
2019-04-01T12:22:06.149Z,30.18
2019-04-01T12:24:37.493Z,29.87
2019-04-01T12:27:09.411Z,29.40
2019-04-01T12:29:43.052Z,29.14
2019-04-01T12:32:14.065Z,29.06
2019-04-01T12:34:46.664Z,29.08
2019-04-01T12:37:20.587Z,28.63
2019-04-01T12:39:51.733Z,27.77
2019-04-01T12:42:23.497Z,27.87
2019-04-01T12:44:55.385Z,27.71
2019-04-01T12:47:26.613Z,28.27
2019-04-01T12:49:57.633Z,27.49
2019-04-01T12:52:28.579Z,27.08
2019-04-01T12:55:01.112Z,29.01
2019-04-01T12:57:32.209Z,29.31
2019-04-01T13:00:03.806Z,27.79
2019-04-01T13:02:34.798Z,27.24
2019-04-01T13:05:06.977Z,28.01
2019-04-01T13:07:38.008Z,28.51
2019-04-01T13:10:09.363Z,27.91
2019-04-01T13:12:42.451Z,26.83
2019-04-01T13:15:15.128Z,27.19
2019-04-01T13:17:46.256Z,27.03
2019-04-01T13:20:17.229Z,26.68
2019-04-01T13:22:48.240Z,28.18
2019-04-01T13:25:19.401Z,27.84
2019-04-01T13:27:50.298Z,28.35
2019-04-01T13:30:24.086Z,28.63
2019-04-01T13:32:54.086Z,28.91
2019-04-01T13:35:25.000Z,28.32
2019-04-01T13:37:55.988Z,28.21
2019-04-01T13:40:26.861Z,30.26
2019-04-01T13:42:57.850Z,31.27
2019-04-01T13:45:31.695Z,31.39
2019-04-01T13:48:01.367Z,30.43
2019-04-01T13:50:32.661Z,28.39
2019-04-01T13:53:03.796Z,27.87
2019-04-01T13:55:38.288Z,28.85
2019-04-01T13:58:12.451Z,30.00
2019-04-01T14:00:43.440Z,31.74
2019-04-01T14:03:14.409Z,31.25
2019-04-01T14:05:49.592Z,31.16
2019-04-01T14:08:21.459Z,31.44
2019-04-01T14:10:54.442Z,30.67
2019-04-01T14:13:25.426Z,29.46
2019-04-01T14:15:56.292Z,29.44
2019-04-01T14:18:27.170Z,32.66
2019-04-01T14:20:58.131Z,35.84
2019-04-01T14:23:29.000Z,38.28
2019-04-01T14:26:00.639Z,39.08
2019-04-01T14:28:31.512Z,39.26
2019-04-01T14:31:02.404Z,39.31
2019-04-01T14:33:34.534Z,38.94
2019-04-01T14:36:05.630Z,37.85
2019-04-01T14:38:36.725Z,37.71
2019-04-01T14:41:07.614Z,38.31
2019-04-01T14:43:40.169Z,39.04
2019-04-01T14:46:11.238Z,39.87
2019-04-01T14:48:42.261Z,40.13
2019-04-01T14:51:13.131Z,41.09
2019-04-01T14:53:44.106Z,39.90
2019-04-01T14:56:15.012Z,38.04
2019-04-01T14:58:57.216Z,35.32
2019-04-01T15:01:28.054Z,33.59
2019-04-01T15:03:59.084Z,32.79
2019-04-01T15:06:30.277Z,33.69
2019-04-01T15:13:06.167Z,33.30
2019-04-01T15:15:38.148Z,34.07
2019-04-01T15:18:20.753Z,35.66
2019-04-01T15:20:57.199Z,36.20
2019-04-01T15:23:30.089Z,36.51
2019-04-01T15:26:05.604Z,35.12
2019-04-01T15:28:45.035Z,34.70
2019-04-01T15:31:54.112Z,34.60
2019-04-01T15:34:17.544Z,35.47
2019-04-01T15:40:26.232Z,34.65
2019-04-01T15:43:12.463Z,34.77
2019-04-01T15:46:03.918Z,34.01
2019-04-01T15:48:33.734Z,35.27
2019-04-01T15:51:17.528Z,35.86
2019-04-01T15:54:08.668Z,35.97
2019-04-01T15:56:42.000Z,36.29
2019-04-01T15:59:27.595Z,36.87
2019-04-01T16:02:01.590Z,37.20
2019-04-01T16:04:53.295Z,37.69
2019-04-01T16:07:35.456Z,39.40
2019-04-01T16:10:09.970Z,39.40
2019-04-01T16:12:45.322Z,39.46
2019-04-01T16:15:19.532Z,40.86
2019-04-01T16:17:53.874Z,40.85
2019-04-01T16:20:26.979Z,40.36
2019-04-01T16:23:05.057Z,40.71
2019-04-01T16:25:41.126Z,41.13
2019-04-01T16:28:20.352Z,41.69
2019-04-01T16:30:51.424Z,41.76
2019-04-01T16:33:29.937Z,41.81
2019-04-01T16:36:18.775Z,42.30
2019-04-01T16:38:56.353Z,42.54
2019-04-01T16:41:27.599Z,42.69
2019-04-01T16:44:04.581Z,43.25
2019-04-01T16:46:37.250Z,43.46
2019-04-01T16:49:11.547Z,43.63
2019-04-01T16:51:42.386Z,44.33
2019-04-01T16:54:13.829Z,44.68
2019-04-01T16:57:06.323Z,44.94
2019-04-01T16:59:48.985Z,45.50
2019-04-01T17:02:52.378Z,46.03
2019-04-01T17:08:41.475Z,46.47
2019-04-01T17:18:01.011Z,47.92
2019-04-01T17:20:31.983Z,48.55
2019-04-01T17:23:03.017Z,48.55
2019-04-01T17:25:34.097Z,48.84
2019-04-01T17:28:05.101Z,49.36
2019-04-01T17:30:35.990Z,49.42
2019-04-01T17:33:10.182Z,49.71
2019-04-01T17:35:42.030Z,50.07
2019-04-01T17:38:13.923Z,50.33
2019-04-01T17:40:44.869Z,50.82
2019-04-01T17:43:17.371Z,50.99
2019-04-01T17:45:48.554Z,51.09
2019-04-01T17:48:22.847Z,51.63
2019-04-01T17:50:55.235Z,51.84
2019-04-01T17:53:26.135Z,52.02
2019-04-01T17:55:58.475Z,52.23
2019-04-01T17:58:29.430Z,52.79
2019-04-01T18:01:01.815Z,53.05
2019-04-01T18:03:37.439Z,53.26
2019-04-01T18:06:08.523Z,53.39
2019-04-01T18:08:55.427Z,53.54
2019-04-01T18:11:35.457Z,53.55
2019-04-01T18:14:09.217Z,54.08
2019-04-01T18:16:43.076Z,54.08
2019-04-01T18:19:14.571Z,53.96
2019-04-01T18:21:50.939Z,54.83
2019-04-01T18:28:08.295Z,54.97
2019-04-01T18:31:13.326Z,54.81
2019-04-01T18:33:56.420Z,55.32
2019-04-01T18:36:34.611Z,55.78
2019-04-01T18:39:47.897Z,56.16
2019-04-01T18:42:11.014Z,56.68
2019-04-01T18:44:50.817Z,56.83
2019-04-01T18:47:25.577Z,57.13
2019-04-01T18:50:20.882Z,57.35
2019-04-01T18:56:07.747Z,56.67
2019-04-01T18:58:40.580Z,57.00
2019-04-01T19:01:44.218Z,57.14
2019-04-01T19:04:20.726Z,57.64
2019-04-01T19:06:56.298Z,57.65
2019-04-01T19:09:32.684Z,57.93
2019-04-01T19:12:06.870Z,58.17
2019-04-01T19:14:40.955Z,58.40
2019-04-01T19:17:15.362Z,58.40
2019-04-01T19:20:00.641Z,58.36
2019-04-01T19:28:08.503Z,58.70
2019-04-01T19:34:48.938Z,59.05
2019-04-01T19:37:22.619Z,59.46
2019-04-01T19:40:24.746Z,59.70
2019-04-01T19:43:03.791Z,59.68
2019-04-01T19:46:10.556Z,59.70
2019-04-01T19:51:50.051Z,59.89
2019-04-01T19:54:29.253Z,59.97
2019-04-01T19:56:53.796Z,60.16
2019-04-01T19:59:26.058Z,60.15
2019-04-01T20:01:58.194Z,60.22
2019-04-01T20:04:32.213Z,60.00
2019-04-01T20:07:08.180Z,59.87
2019-04-01T20:09:40.678Z,59.63
2019-04-01T20:12:13.222Z,59.44
2019-04-01T20:14:44.241Z,59.31
2019-04-01T20:17:15.249Z,59.26
2019-04-01T20:19:47.901Z,59.44
2019-04-01T20:22:25.183Z,59.40
2019-04-01T20:28:00.946Z,58.96
2019-04-01T20:30:42.633Z,58.91
2019-04-01T20:33:31.810Z,58.85
2019-04-01T20:36:04.798Z,58.68
2019-04-01T20:38:35.854Z,58.74
2019-04-01T20:41:07.010Z,58.52
2019-04-01T20:43:37.971Z,58.51
2019-04-01T20:46:08.863Z,58.34
2019-04-01T20:48:41.490Z,58.42
2019-04-01T20:51:12.442Z,58.17
2019-04-01T20:53:47.179Z,58.03
2019-04-01T20:56:21.137Z,58.23
2019-04-01T20:58:52.252Z,58.00
2019-04-01T21:01:23.514Z,57.94
2019-04-01T21:03:54.534Z,58.00
2019-04-01T21:06:29.507Z,58.02
2019-04-01T21:09:02.163Z,57.60
2019-04-01T21:11:36.409Z,57.57
2019-04-01T21:14:07.415Z,57.14
2019-04-01T21:16:56.394Z,57.03
2019-04-01T21:19:31.542Z,56.85
2019-04-01T21:22:19.068Z,56.83
2019-04-01T21:24:50.005Z,56.62
2019-04-01T21:27:20.955Z,56.71
2019-04-01T21:29:54.055Z,56.81
2019-04-01T21:32:25.215Z,56.80
2019-04-01T21:34:56.260Z,57.12
2019-04-01T21:37:27.468Z,57.23
2019-04-01T21:39:59.228Z,57.18
2019-04-01T21:42:30.986Z,56.79
2019-04-01T21:45:02.249Z,56.88
2019-04-01T21:47:33.339Z,56.80
2019-04-01T21:50:10.387Z,56.92
2019-04-01T21:52:41.590Z,56.78
2019-04-01T21:55:13.054Z,56.65
2019-04-01T21:57:43.985Z,56.49
2019-04-01T22:00:18.120Z,56.79
2019-04-01T22:02:49.336Z,56.87
2019-04-01T22:05:20.261Z,56.82
2019-04-01T22:07:51.105Z,57.01
2019-04-01T22:10:22.109Z,56.86
2019-04-01T22:12:52.979Z,56.43
2019-04-01T22:15:32.771Z,56.79
2019-04-01T22:18:06.555Z,56.85
2019-04-01T22:20:38.981Z,56.69
2019-04-01T22:23:10.045Z,56.89
2019-04-01T22:25:40.912Z,56.78
2019-04-01T22:28:11.754Z,56.90
2019-04-01T22:30:42.711Z,57.29
2019-04-01T22:33:13.630Z,57.55
2019-04-01T22:35:44.519Z,57.50
2019-04-01T22:38:24.649Z,57.52
2019-04-01T22:40:48.192Z,57.44
2019-04-01T22:43:19.035Z,57.56
2019-04-01T22:45:49.924Z,57.93
2019-04-01T22:48:20.754Z,58.49
2019-04-01T22:50:51.698Z,59.17
2019-04-01T22:53:22.583Z,58.79
2019-04-01T22:55:53.491Z,58.76
2019-04-01T22:58:24.380Z,58.90
2019-04-01T23:00:55.288Z,59.12
2019-04-01T23:03:26.140Z,59.50
2019-04-01T23:05:56.982Z,59.74
2019-04-01T23:08:27.831Z,59.79
2019-04-01T23:10:58.688Z,59.81
2019-04-01T23:13:29.604Z,60.00
2019-04-01T23:16:00.414Z,59.96
2019-04-01T23:18:31.294Z,60.47
2019-04-01T23:21:02.541Z,60.83
2019-04-01T23:26:25.315Z,61.90
2019-04-01T23:28:57.172Z,62.05
2019-04-01T23:31:28.116Z,61.61
2019-04-01T23:33:59.087Z,61.35
2019-04-01T23:36:30.124Z,61.60
2019-04-01T23:39:01.016Z,61.74
2019-04-01T23:41:31.840Z,61.62
2019-04-01T23:44:02.755Z,62.09
2019-04-01T23:46:33.604Z,62.01
2019-04-01T23:49:04.440Z,61.92
2019-04-01T23:51:36.204Z,62.22
2019-04-01T23:54:07.424Z,62.30
2019-04-01T23:56:38.360Z,62.32
2019-04-01T23:59:09.227Z,62.41
